Picacho, New Mexico
Current Conditions -  °F | °C
As of 5:51 PM on Tuesday 21 Oct 2014 (Local Time) from KROW Reporting Station
Scattered Clouds Scattered Clouds  
Wind Chill: 63°   Ceiling: Unl
Heat Index: 63°   Visibility: 10mi
Dew Point: 58°   Wind: 13mph
Humidity: 84%   Direction: 140°SE
Pressure: 30.05"   Gusts: NA
Location:  33.41°N, 105.01°W
Report Text: KROW 212351Z 14011KT 10SM FEW029 SCT060 17/14 A3005 RMK AO2 LTG DSNT W SLP133 60000 T01720144 10206 20172 58001
Loading
Personal Weather Stations






























Interactive Weather Map
Tropical Storm Tracking
New forecast layout! Learn more

10-Day Weather Forecast

Advertisements
Track Severe Weather on mobile